Montague, California
Current Conditions -  °F | °C
As of 8:53 PM on Thursday 30 Oct 2014 (Local Time) from KSIY Reporting Station
Broken Clouds Broken Clouds  
Wind Chill: 60°   Ceiling: 12000
Heat Index: 60°   Visibility: 10mi
Dew Point: 44°   Wind: 16mph
Humidity: 55%   Direction: 170°S
Pressure: 29.81"   Gusts: NA
Location:  41.73°N, 122.53°W
Report Text: KSIY 310353Z AUTO 17014KT 10SM BKN120 16/07 A2981 RMK AO2 SLP102 T01560067
Loading
Personal Weather Stations






























Interactive Weather Map
Tropical Storm Tracking
New forecast layout! Learn more

10-Day Weather Forecast

Advertisements
Track Severe Weather on mobile